MMPB

Hermanos Serdán International Airport

Airport
ICAO code
MMPB
IATA Code
PBC
Summary
ICAO Region
CARSAM
ICAO Territory
Location

Hujotzingo, Puebla

Serving
Puebla
Elevation
7361 ft
Coordinates
19° 9' 29" N , 98° 22' 17" W
KCC
Metar
MMPB 150041Z 10013KT 4SM RA SCT020CB OVC090 18/13 A3022 RMK 8/36/ RAB38

Puebla International Airport, officially Hermanos Serdán International Airport is an international airport located in the municipalities of Tlaltenango, Huejotzingo and Juan C. Bonilla near Puebla, Puebla, Mexico. It handles national and international air traffic for the city of Puebla.

Climatology

Subtropical highland Climate (Köppen climate classification Cwb)

Runways

Designator Length Width Surface Rops
17/35 3600 45 ASP Yes/Yes

Airport map

Aerial View

SKYbrary Partners:

Safety knowledge contributed by: